Time,TemperatureF,DewpointF,PressureIn,WindDirection,WindDirectionDegrees,WindSpeedMPH,WindSpeedGustMPH,Humidity,HourlyPrecipIn,Conditions,Clouds,dailyrainin,SolarRadiationWatts/m^2,SoftwareType,DateUTC
2013-05-03 00:01:00,33.0,8.0,-100.00,SW,214,9.0,24.0,34,0.00,,,0.00,0.000000,,2013-05-03 06:01:00,
2013-05-03 00:11:00,33.0,8.0,-100.00,SW,214,9.0,24.0,34,0.00,,,0.00,0.000000,,2013-05-03 06:11:00,
2013-05-03 00:21:00,33.0,8.0,-100.00,SW,214,9.0,24.0,34,0.00,,,0.00,0.000000,,2013-05-03 06:21:00,
2013-05-03 00:32:00,33.0,8.0,-100.00,SW,214,9.0,24.0,34,0.00,,,0.00,0.000000,,2013-05-03 06:32:00,
2013-05-03 00:40:00,34.0,8.0,-100.00,SW,229,13.0,19.0,33,0.00,,,0.00,0.000000,,2013-05-03 06:40:00,
2013-05-03 01:01:00,34.0,8.0,-100.00,SW,229,13.0,19.0,33,0.00,,,0.00,0.000000,,2013-05-03 07:01:00,
2013-05-03 01:11:00,34.0,8.0,-100.00,SW,229,13.0,19.0,33,0.00,,,0.00,0.000000,,2013-05-03 07:11:00,
2013-05-03 01:21:00,34.0,8.0,-100.00,SW,229,13.0,19.0,33,0.00,,,0.00,0.000000,,2013-05-03 07:21:00,
2013-05-03 01:31:00,34.0,8.0,-100.00,SW,229,13.0,19.0,33,0.00,,,0.00,0.000000,,2013-05-03 07:31:00,
2013-05-03 02:40:00,34.0,7.0,-100.00,SW,224,13.0,22.0,31,-99.99,,,0.00,0.000000,,2013-05-03 08:40:00,
2013-05-03 03:01:00,34.0,7.0,-100.00,SW,224,13.0,22.0,31,-99.99,,,0.00,0.000000,,2013-05-03 09:01:00,
2013-05-03 03:11:00,34.0,7.0,-100.00,SW,224,13.0,22.0,31,-99.99,,,0.00,0.000000,,2013-05-03 09:11:00,
2013-05-03 03:21:00,34.0,7.0,-100.00,SW,224,13.0,22.0,31,-99.99,,,0.00,0.000000,,2013-05-03 09:21:00,
2013-05-03 03:32:00,34.0,7.0,-100.00,SW,224,13.0,22.0,31,-99.99,,,0.00,0.000000,,2013-05-03 09:32:00,
2013-05-03 03:40:00,35.0,7.0,-100.00,SW,230,12.0,21.0,31,0.00,,,0.00,0.000000,,2013-05-03 09:40:00,
2013-05-03 04:02:00,35.0,7.0,-100.00,SW,230,12.0,21.0,31,0.00,,,0.00,0.000000,,2013-05-03 10:02:00,
2013-05-03 04:12:00,35.0,7.0,-100.00,SW,230,12.0,21.0,31,0.00,,,0.00,0.000000,,2013-05-03 10:12:00,
2013-05-03 04:22:00,35.0,7.0,-100.00,SW,230,12.0,21.0,31,0.00,,,0.00,0.000000,,2013-05-03 10:22:00,
2013-05-03 04:32:00,35.0,7.0,-100.00,SW,230,12.0,21.0,31,0.00,,,0.00,0.000000,,2013-05-03 10:32:00,
2013-05-03 04:40:00,36.0,7.0,-100.00,WSW,239,9.0,18.0,29,0.00,,,0.00,0.000000,,2013-05-03 10:40:00,
2013-05-03 05:02:00,36.0,7.0,-100.00,WSW,239,9.0,18.0,29,0.00,,,0.00,0.000000,,2013-05-03 11:02:00,
2013-05-03 05:11:00,36.0,7.0,-100.00,WSW,239,9.0,18.0,29,0.00,,,0.00,0.000000,,2013-05-03 11:11:00,
2013-05-03 05:22:00,36.0,7.0,-100.00,WSW,239,9.0,18.0,29,0.00,,,0.00,0.000000,,2013-05-03 11:22:00,
2013-05-03 05:31:00,36.0,7.0,-100.00,WSW,239,9.0,18.0,29,0.00,,,0.00,0.000000,,2013-05-03 11:31:00,
2013-05-03 06:01:00,36.0,7.0,-100.00,West,260,9.0,16.0,29,0.00,,,0.00,0.000000,,2013-05-03 12:01:00,
2013-05-03 06:11:00,36.0,7.0,-100.00,West,260,9.0,16.0,29,0.00,,,0.00,0.000000,,2013-05-03 12:11:00,
2013-05-03 06:21:00,36.0,7.0,-100.00,West,260,9.0,16.0,29,0.00,,,0.00,0.000000,,2013-05-03 12:21:00,
2013-05-03 06:32:00,36.0,7.0,-100.00,West,260,9.0,16.0,29,0.00,,,0.00,0.000000,,2013-05-03 12:32:00,
2013-05-03 07:01:00,37.0,8.0,-100.00,WSW,242,9.0,18.0,29,0.00,,,0.00,19.000000,,2013-05-03 13:01:00,
2013-05-03 07:11:00,37.0,8.0,-100.00,WSW,242,9.0,18.0,29,0.00,,,0.00,19.000000,,2013-05-03 13:11:00,
2013-05-03 07:22:00,37.0,8.0,-100.00,WSW,242,9.0,18.0,29,0.00,,,0.00,19.000000,,2013-05-03 13:22:00,
2013-05-03 07:31:00,37.0,8.0,-100.00,WSW,242,9.0,18.0,29,0.00,,,0.00,19.000000,,2013-05-03 13:31:00,
2013-05-03 08:02:00,41.0,9.0,-100.00,WSW,257,5.0,14.0,26,-99.99,,,0.00,118.000000,,2013-05-03 14:02:00,
2013-05-03 08:40:00,42.0,9.0,-100.00,West,277,8.0,15.0,25,-99.99,,,0.00,232.000000,,2013-05-03 14:40:00,
2013-05-03 09:01:00,42.0,9.0,-100.00,West,277,8.0,15.0,25,-99.99,,,0.00,232.000000,,2013-05-03 15:01:00,
2013-05-03 09:11:00,42.0,9.0,-100.00,West,277,8.0,15.0,25,-99.99,,,0.00,232.000000,,2013-05-03 15:11:00,
2013-05-03 09:22:00,42.0,9.0,-100.00,West,277,8.0,15.0,25,-99.99,,,0.00,232.000000,,2013-05-03 15:22:00,
2013-05-03 09:32:00,42.0,9.0,-100.00,West,277,8.0,15.0,25,-99.99,,,0.00,232.000000,,2013-05-03 15:32:00,
2013-05-03 10:03:00,50.0,12.0,-100.00,NW,307,4.0,13.0,21,-99.99,,,0.00,591.000000,,2013-05-03 16:03:00,
2013-05-03 10:40:00,51.0,14.0,-100.00,North,354,2.0,11.0,22,-99.99,,,0.00,726.000000,,2013-05-03 16:40:00,
2013-05-03 11:02:00,51.0,14.0,-100.00,North,354,2.0,11.0,22,-99.99,,,0.00,726.000000,,2013-05-03 17:02:00,
2013-05-03 11:40:00,52.0,17.0,-100.00,NNW,346,4.0,13.0,25,0.00,,,0.00,680.000000,,2013-05-03 17:40:00,
2013-05-03 12:01:00,52.0,17.0,-100.00,NNW,346,4.0,13.0,25,0.00,,,0.00,680.000000,,2013-05-03 18:01:00,
2013-05-03 12:40:00,50.0,23.0,-100.00,WNW,283,7.0,18.0,35,0.00,,,0.00,753.000000,,2013-05-03 18:40:00,
2013-05-03 13:01:00,50.0,23.0,-100.00,WNW,283,7.0,18.0,35,0.00,,,0.00,753.000000,,2013-05-03 19:01:00,
2013-05-03 13:11:00,50.0,23.0,-100.00,WNW,283,7.0,18.0,35,0.00,,,0.00,753.000000,,2013-05-03 19:11:00,
2013-05-03 13:21:00,50.0,23.0,-100.00,WNW,283,7.0,18.0,35,0.00,,,0.00,753.000000,,2013-05-03 19:21:00,
2013-05-03 13:31:00,50.0,23.0,-100.00,WNW,283,7.0,18.0,35,0.00,,,0.00,753.000000,,2013-05-03 19:31:00,
2013-05-03 13:40:00,45.0,22.0,-100.00,WSW,249,6.0,19.0,39,0.00,,,0.00,625.000000,,2013-05-03 19:40:00,
2013-05-03 14:02:00,45.0,22.0,-100.00,WSW,249,6.0,19.0,39,0.00,,,0.00,625.000000,,2013-05-03 20:02:00,
2013-05-03 14:11:00,45.0,22.0,-100.00,WSW,249,6.0,19.0,39,0.00,,,0.00,625.000000,,2013-05-03 20:11:00,
2013-05-03 14:21:00,45.0,22.0,-100.00,WSW,249,6.0,19.0,39,0.00,,,0.00,625.000000,,2013-05-03 20:21:00,
2013-05-03 14:31:00,45.0,22.0,-100.00,WSW,249,6.0,19.0,39,0.00,,,0.00,625.000000,,2013-05-03 20:31:00,
2013-05-03 14:40:00,46.0,23.0,-100.00,North,356,5.0,19.0,40,0.00,,,0.00,584.000000,,2013-05-03 20:40:00,
2013-05-03 15:01:00,46.0,23.0,-100.00,North,356,5.0,19.0,40,0.00,,,0.00,584.000000,,2013-05-03 21:01:00,
2013-05-03 15:11:00,46.0,23.0,-100.00,North,356,5.0,19.0,40,0.00,,,0.00,584.000000,,2013-05-03 21:11:00,
2013-05-03 15:21:00,46.0,23.0,-100.00,North,356,5.0,19.0,40,0.00,,,0.00,584.000000,,2013-05-03 21:21:00,
2013-05-03 15:33:00,46.0,23.0,-100.00,North,356,5.0,19.0,40,0.00,,,0.00,584.000000,,2013-05-03 21:33:00,
2013-05-03 15:40:00,44.0,25.0,-100.00,WSW,254,6.0,14.0,46,0.00,,,0.00,389.000000,,2013-05-03 21:40:00,
2013-05-03 16:02:00,44.0,25.0,-100.00,WSW,254,6.0,14.0,46,0.00,,,0.00,389.000000,,2013-05-03 22:02:00,
2013-05-03 16:12:00,44.0,25.0,-100.00,WSW,254,6.0,14.0,46,0.00,,,0.00,389.000000,,2013-05-03 22:12:00,
2013-05-03 16:22:00,44.0,25.0,-100.00,WSW,254,6.0,14.0,46,0.00,,,0.00,389.000000,,2013-05-03 22:22:00,
2013-05-03 16:32:00,44.0,25.0,-100.00,WSW,254,6.0,14.0,46,0.00,,,0.00,389.000000,,2013-05-03 22:32:00,
2013-05-03 18:40:00,38.0,27.0,-100.00,ENE,73,3.0,9.0,63,-99.99,,,0.00,148.000000,,2013-05-04 00:40:00,
2013-05-03 19:01:00,38.0,27.0,-100.00,ENE,73,3.0,9.0,63,-99.99,,,0.00,148.000000,,2013-05-04 01:01:00,
2013-05-03 19:11:00,38.0,27.0,-100.00,ENE,73,3.0,9.0,63,-99.99,,,0.00,148.000000,,2013-05-04 01:11:00,
2013-05-03 19:21:00,38.0,27.0,-100.00,ENE,73,3.0,9.0,63,-99.99,,,0.00,148.000000,,2013-05-04 01:21:00,
2013-05-03 19:31:00,38.0,27.0,-100.00,ENE,73,3.0,9.0,63,-99.99,,,0.00,148.000000,,2013-05-04 01:31:00,
2013-05-03 19:40:00,33.0,28.0,-100.00,NE,34,2.0,11.0,80,0.00,,,0.00,36.000000,,2013-05-04 01:40:00,
2013-05-03 20:02:00,33.0,28.0,-100.00,NE,34,2.0,11.0,80,0.00,,,0.00,36.000000,,2013-05-04 02:02:00,
2013-05-03 20:11:00,33.0,28.0,-100.00,NE,34,2.0,11.0,80,0.00,,,0.00,36.000000,,2013-05-04 02:11:00,
2013-05-03 20:21:00,33.0,28.0,-100.00,NE,34,2.0,11.0,80,0.00,,,0.00,36.000000,,2013-05-04 02:21:00,
2013-05-03 20:32:00,33.0,28.0,-100.00,NE,34,2.0,11.0,80,0.00,,,0.00,36.000000,,2013-05-04 02:32:00,
2013-05-03 20:40:00,32.0,30.0,-100.00,North,10,2.0,8.0,92,0.00,,,0.00,8.000000,,2013-05-04 02:40:00,
2013-05-03 21:02:00,32.0,30.0,-100.00,North,10,2.0,8.0,92,0.00,,,0.00,8.000000,,2013-05-04 03:02:00,
2013-05-03 21:11:00,32.0,30.0,-100.00,North,10,2.0,8.0,92,0.00,,,0.00,8.000000,,2013-05-04 03:11:00,
2013-05-03 21:21:00,32.0,30.0,-100.00,North,10,2.0,8.0,92,0.00,,,0.00,8.000000,,2013-05-04 03:21:00,
2013-05-03 21:32:00,32.0,30.0,-100.00,North,10,2.0,8.0,92,0.00,,,0.00,8.000000,,2013-05-04 03:32:00,
2013-05-03 21:40:00,32.0,31.0,-100.00,North,357,2.0,7.0,96,0.00,,,0.00,0.000000,,2013-05-04 03:40:00,
2013-05-03 22:02:00,32.0,31.0,-100.00,North,357,2.0,7.0,96,0.00,,,0.00,0.000000,,2013-05-04 04:02:00,
2013-05-03 22:12:00,32.0,31.0,-100.00,North,357,2.0,7.0,96,0.00,,,0.00,0.000000,,2013-05-04 04:12:00,
2013-05-03 22:22:00,32.0,31.0,-100.00,North,357,2.0,7.0,96,0.00,,,0.00,0.000000,,2013-05-04 04:22:00,
2013-05-03 22:32:00,32.0,31.0,-100.00,North,357,2.0,7.0,96,0.00,,,0.00,0.000000,,2013-05-04 04:32:00,
2013-05-03 22:40:00,31.0,30.0,-100.00,NNW,344,2.0,11.0,97,0.00,,,0.00,0.000000,,2013-05-04 04:40:00,
2013-05-03 23:02:00,31.0,30.0,-100.00,NNW,344,2.0,11.0,97,0.00,,,0.00,0.000000,,2013-05-04 05:02:00,
2013-05-03 23:11:00,31.0,30.0,-100.00,NNW,344,2.0,11.0,97,0.00,,,0.00,0.000000,,2013-05-04 05:11:00,
2013-05-03 23:21:00,31.0,30.0,-100.00,NNW,344,2.0,11.0,97,0.00,,,0.00,0.000000,,2013-05-04 05:21:00,
2013-05-03 23:32:00,31.0,30.0,-100.00,NNW,344,2.0,11.0,97,0.00,,,0.00,0.000000,,2013-05-04 05:32:00,
2013-05-03 23:40:00,31.0,30.0,-100.00,NNW,345,2.0,6.0,97,0.00,,,0.00,0.000000,,2013-05-04 05:40:00,